ADDS METAR Data INFO
IDs: Format: Raw Decoded Include TAF

Data at: 0900 UTC 20 Oct 2017

KCTB 200856Z AUTO 12004KT 10SM CLR 07/M07 A2936 RMK AO2 SLP926 T00671067 58021
KCTB 200756Z AUTO 08006KT 10SM CLR 06/M06 A2940 RMK AO2 SLP939 T00561056
KCTB 200656Z AUTO 07004KT 10SM CLR 07/M06 A2942 RMK AO2 SLP945 T00721056 402110061
KCTB 200556Z AUTO 30003KT 10SM CLR 08/M06 A2943 RMK AO2 SLP949 T00781061 10167 20061 56011
KCTB 200456Z AUTO 00000KT 10SM CLR 09/M08 A2944 RMK AO2 SLP954 T00941078
KCTB 200356Z AUTO 26004KT 10SM CLR 09/M07 A2946 RMK AO2 SLP964 T00891067
KCTB 200256Z AUTO 19005KT 10SM CLR 10/M08 A2947 RMK AO2 SLP966 T01001078 56010
KCTB 200156Z AUTO VRB05KT 10SM CLR 12/M08 A2948 RMK AO2 SLP967 T01221078
KCTB 200056Z AUTO 25010KT 10SM CLR 13/M07 A2949 RMK AO2 SLP969 T01331067
KCTB 192356Z AUTO 26011KT 10SM CLR 17/M07 A2950 RMK AO2 SLP972 T01671072 10211 20167 56014
KCTB 192256Z AUTO 25019G23KT 10SM CLR 20/M09 A2952 RMK AO2 PK WND 24026/2200 SLP970 T02001089
KCTB 192156Z AUTO 25019KT 10SM CLR 20/M10 A2953 RMK AO2 PK WND 25026/2130 SLP976 T02001100
KCTB 192056Z AUTO 23022G27KT 10SM CLR 21/M08 A2955 RMK AO2 PK WND 24031/1959 SLP981 T02061078 58016
KCTB 191956Z AUTO 23023G28KT 10SM CLR 20/M04 A2957 RMK AO2 PK WND 23028/1955 SLP990 T02001044
KCTB 191856Z AUTO 25015KT 10SM CLR 20/M04 A2959 RMK AO2 SLP994 T02001044
KCTB 191756Z AUTO 21016KT 10SM CLR 19/M07 A2960 RMK AO2 SLP002 T01941067 10194 20117 50000
KCTB 191656Z AUTO 21012KT 10SM CLR 17/M06 A2961 RMK AO2 SLP006 T01721061
KCTB 191556Z AUTO 15008KT 10SM CLR 14/M05 A2961 RMK AO2 SLP012 T01441050
KCTB 191456Z AUTO 21008KT 10SM CLR 14/M05 A2960 RMK AO2 SLP012 T01441050 53004
KCTB 191356Z AUTO 25009KT 10SM CLR 13/M06 A2959 RMK AO2 SLP007 T01331056
KCTB 191256Z AUTO 24018G25KT 10SM CLR 14/M06 A2958 RMK AO2 SLP001 T01441056
KCTB 191156Z AUTO 25012KT 10SM CLR 12/M04 A2959 RMK AO2 SLP006 T01221039 10144 20111 56004
KCTB 191056Z AUTO 26013KT 10SM CLR 13/M04 A2959 RMK AO2 PK WND 24030/1001 SLP004 T01331039
KCTB 190956Z AUTO 24022G27KT 10SM CLR 14/M04 A2958 RMK AO2 PK WND 24027/0956 SLP001 T01391044
KCTB 190856Z AUTO 24021G31KT 10SM CLR 14/M04 A2960 RMK AO2 PK WND 23041/0800 SLP006 T01391044 56016
KCTB 190756Z AUTO 24023G30KT 10SM CLR 14/M02 A2960 RMK AO2 PK WND 23032/0744 SLP009 T01391022
KCTB 190656Z AUTO 21011G15KT 10SM CLR 13/00 A2964 RMK AO2 PK WND 24026/0602 SLP025 T01280000 401560011
KCTB 190556Z AUTO 24017G24KT 10SM CLR 13/02 A2966 RMK AO2 PK WND 24037/0505 SLP031 T01280017 10133 20100 55007
KCTB 190456Z AUTO 25035G44KT 10SM CLR 13/03 A2964 RMK AO2 PK WND 25044/0456 SLP026 T01280028
KCTB 190356Z AUTO 23012G20KT 10SM SCT050 12/03 A2968 RMK AO2 SLP044 T01170028
KCTB 190256Z AUTO 23015KT 10SM CLR 10/03 A2968 RMK AO2 PK WND 24035/0158 SLP052 T01000028 56018
KCTB 190156Z AUTO 24032KT 10SM CLR 12/03 A2969 RMK AO2 PK WND 23039/0129 SLP051 T01220028
KCTB 190056Z AUTO 23021G29KT 10SM CLR 12/03 A2973 RMK AO2 PK WND 25037/0019 SLP067 T01170028
KCTB 182356Z AUTO 24027G35KT 10SM CLR 13/02 A2974 RMK AO2 PK WND 24035/2353 SLP069 T01330017 10156 20117 58019
KCTB 182256Z AUTO 24017G26KT 10SM CLR 14/01 A2978 RMK AO2 PK WND 22026/2251 SLP081 T01440011
KCTB 182156Z AUTO 23020G27KT 10SM CLR 14/00 A2979 RMK AO2 PK WND 24031/2131 SLP083 T01390000